Time;durP1;ratioP1;P1;durP2;ratioP2;P2;SDS_P1;SDS_P2;PMS_P1;PMS_P2;Temp;Humidity;BMP_temperature;BMP_pressure;BME280_temperature;BME280_humidity;BME280_pressure;Samples;Min_cycle;Max_cycle;Signal;HPM_P1;HPM_P2
2022/08/30 00:02:59;;;;;;;9.48;4.00;;;19.20;99.90;;;;;;4982837;28;20045;-57
2022/08/30 00:05:26;;;;;;;10.70;4.30;;;19.30;99.90;;;;;;4977625;28;20033;-58
2022/08/30 00:07:52;;;;;;;9.90;4.07;;;19.30;99.90;;;;;;4985936;28;20025;-57
2022/08/30 00:10:18;;;;;;;11.65;4.22;;;19.10;99.90;;;;;;4981935;28;20483;-58
2022/08/30 00:12:44;;;;;;;9.32;3.97;;;19.20;99.90;;;;;;4979100;28;20034;-57
2022/08/30 00:15:12;;;;;;;12.73;4.55;;;19.20;99.90;;;;;;4982026;28;20030;-56
2022/08/30 00:17:38;;;;;;;7.38;3.72;;;;;;;;;;4990269;28;20137;-58
2022/08/30 00:20:07;;;;;;;9.45;4.22;;;19.10;99.90;;;;;;4979612;28;20046;-57
2022/08/30 00:22:32;;;;;;;13.27;4.05;;;19.10;99.90;;;;;;4988779;28;20062;-57
2022/08/30 00:25:01;;;;;;;10.98;4.07;;;19.10;99.90;;;;;;4988520;28;20098;-57
2022/08/30 00:27:28;;;;;;;12.63;4.40;;;19.10;99.90;;;;;;4991738;28;20065;-57
2022/08/30 00:29:54;;;;;;;10.07;4.07;;;19.00;99.90;;;;;;4983957;28;20035;-58
2022/08/30 00:32:20;;;;;;;8.57;3.92;;;19.00;99.90;;;;;;4979723;28;20038;-57
2022/08/30 00:34:47;;;;;;;8.20;4.25;;;18.90;99.90;;;;;;4987764;28;20041;-57
2022/08/30 00:37:13;;;;;;;8.00;4.13;;;19.00;99.90;;;;;;4981976;28;20030;-57
2022/08/30 00:39:39;;;;;;;7.88;3.90;;;19.10;99.90;;;;;;4975819;28;20132;-56
2022/08/30 00:42:06;;;;;;;10.43;4.05;;;19.00;99.90;;;;;;4974925;28;20043;-57
2022/08/30 00:44:31;;;;;;;8.82;3.80;;;19.00;99.90;;;;;;4978044;28;20031;-56
2022/08/30 00:46:57;;;;;;;11.13;4.32;;;19.00;99.90;;;;;;4974436;28;20113;-55
2022/08/30 00:49:23;;;;;;;6.82;3.75;;;19.00;99.90;;;;;;4989310;28;20029;-55
2022/08/30 00:51:49;;;;;;;7.25;3.35;;;19.00;99.90;;;;;;4978495;28;20770;-56
2022/08/30 00:54:15;;;;;;;9.20;4.13;;;19.00;99.90;;;;;;4985503;28;20018;-56
2022/08/30 00:56:41;;;;;;;8.32;3.78;;;18.90;99.90;;;;;;4964981;28;20035;-56
2022/08/30 00:59:08;;;;;;;9.20;3.88;;;18.90;99.90;;;;;;4981030;28;20472;-57
2022/08/30 01:01:36;;;;;;;8.98;3.60;;;;;;;;;;4979332;28;20088;-58
2022/08/30 01:04:04;;;;;;;10.23;3.72;;;19.20;99.90;;;;;;4990829;28;20457;-56
2022/08/30 01:06:31;;;;;;;8.52;3.75;;;19.10;99.90;;;;;;4982334;28;20034;-57
2022/08/30 01:08:57;;;;;;;6.03;3.33;;;18.90;99.90;;;;;;4984955;28;20446;-57
2022/08/30 01:11:24;;;;;;;8.52;3.72;;;19.00;99.90;;;;;;4974955;28;20042;-57
2022/08/30 01:13:52;;;;;;;8.18;3.70;;;18.90;99.90;;;;;;4981456;28;20031;-58
2022/08/30 01:16:18;;;;;;;8.85;3.83;;;18.80;99.90;;;;;;4980850;28;20046;-57
2022/08/30 01:18:44;;;;;;;11.43;3.50;;;18.80;99.90;;;;;;4982087;28;20302;-57
2022/08/30 01:21:15;;;;;;;6.22;3.45;;;18.80;99.90;;;;;;4983418;28;20109;-57
2022/08/30 01:23:43;;;;;;;5.10;3.40;;;18.70;99.90;;;;;;4985097;28;20430;-57
2022/08/30 01:26:09;;;;;;;6.72;3.28;;;18.80;99.90;;;;;;4985673;28;20100;-58
2022/08/30 01:28:35;;;;;;;6.00;3.40;;;18.80;99.90;;;;;;4984785;28;20038;-56
2022/08/30 01:31:01;;;;;;;8.25;3.88;;;18.70;99.90;;;;;;4985113;28;20138;-57
2022/08/30 01:33:27;;;;;;;7.13;3.50;;;18.60;99.90;;;;;;4989483;28;20131;-56
2022/08/30 01:36:02;;;;;;;7.78;3.38;;;18.60;99.90;;;;;;4988901;28;20046;-57
2022/08/30 01:38:43;;;;;;;6.78;3.33;;;18.90;99.90;;;;;;4983166;28;20038;-56
2022/08/30 01:41:16;;;;;;;6.47;3.70;;;18.80;99.90;;;;;;4989046;28;20185;-56
2022/08/30 01:43:43;;;;;;;;;;;18.70;99.90;;;;;;4973419;28;20038;-57
2022/08/30 01:46:10;;;;;;;6.60;3.70;;;18.50;99.90;;;;;;4973051;28;20358;-57
2022/08/30 01:48:37;;;;;;;7.50;3.53;;;18.50;99.90;;;;;;4980282;28;20061;-56
2022/08/30 01:51:03;;;;;;;5.50;3.13;;;18.50;99.90;;;;;;4977461;28;20043;-57
2022/08/30 01:53:29;;;;;;;7.28;3.40;;;18.40;99.90;;;;;;4982459;28;20038;-57
2022/08/30 01:55:55;;;;;;;7.18;3.33;;;18.50;99.90;;;;;;4976978;28;20039;-55
2022/08/30 01:58:22;;;;;;;7.18;3.60;;;18.40;99.90;;;;;;4975511;28;20519;-57
2022/08/30 02:00:49;;;;;;;5.13;3.33;;;18.40;99.90;;;;;;4975383;28;20038;-57
2022/08/30 02:03:14;;;;;;;10.05;3.40;;;18.60;99.90;;;;;;4980074;28;20121;-56
2022/08/30 02:05:40;;;;;;;6.72;3.42;;;18.50;99.90;;;;;;4976758;28;20117;-57
2022/08/30 02:08:06;;;;;;;7.57;3.40;;;18.50;99.90;;;;;;4990881;28;20038;-56
2022/08/30 02:10:31;;;;;;;6.07;3.10;;;18.40;99.90;;;;;;4981301;28;20038;-57
2022/08/30 02:12:58;;;;;;;7.47;3.50;;;18.30;99.90;;;;;;4987982;28;20458;-56
2022/08/30 02:15:24;;;;;;;8.85;3.45;;;18.40;99.90;;;;;;4980682;28;20133;-56
2022/08/30 02:17:50;;;;;;;7.53;3.40;;;18.20;99.90;;;;;;4990262;28;20096;-57
2022/08/30 02:20:16;;;;;;;6.13;3.15;;;18.20;99.90;;;;;;4987492;28;20483;-57
2022/08/30 02:22:41;;;;;;;6.82;3.15;;;18.20;99.90;;;;;;4981894;28;20582;-57
2022/08/30 02:25:07;;;;;;;7.22;3.35;;;18.30;99.90;;;;;;4979857;28;20049;-57
2022/08/30 02:27:33;;;;;;;5.32;3.25;;;18.20;99.90;;;;;;4990442;28;20115;-57
2022/08/30 02:29:59;;;;;;;5.35;3.10;;;18.40;99.90;;;;;;4986013;28;20482;-56
2022/08/30 02:32:24;;;;;;;9.15;3.50;;;18.30;99.90;;;;;;4982134;28;20113;-58
2022/08/30 02:34:50;;;;;;;8.40;3.33;;;18.20;99.90;;;;;;4985554;28;20037;-57
2022/08/30 02:37:16;;;;;;;6.88;3.42;;;;;;;;;;4986638;28;20499;-57
2022/08/30 02:39:42;;;;;;;8.10;3.42;;;18.30;99.90;;;;;;4987700;28;20034;-57
2022/08/30 02:42:08;;;;;;;7.35;3.45;;;18.30;99.90;;;;;;4980978;28;20070;-58
2022/08/30 02:44:34;;;;;;;8.68;3.80;;;18.30;99.90;;;;;;4984943;28;20699;-57
2022/08/30 02:46:59;;;;;;;8.38;4.05;;;18.20;99.90;;;;;;4975658;28;20038;-57
2022/08/30 02:49:25;;;;;;;6.40;3.35;;;18.30;99.90;;;;;;4989644;28;20109;-57
2022/08/30 02:51:50;;;;;;;7.65;3.58;;;18.40;99.90;;;;;;4980942;28;20038;-57
2022/08/30 02:54:18;;;;;;;8.40;3.63;;;18.10;99.90;;;;;;4993075;28;20041;-56
2022/08/30 02:56:46;;;;;;;8.77;3.50;;;18.10;99.90;;;;;;4975864;28;20027;-58
2022/08/30 02:59:13;;;;;;;7.75;3.75;;;18.20;99.90;;;;;;4990712;28;20545;-57
2022/08/30 03:01:38;;;;;;;6.43;3.53;;;18.20;99.90;;;;;;4978853;28;20508;-57
2022/08/30 03:04:05;;;;;;;6.57;3.67;;;18.50;99.90;;;;;;4982944;28;20034;-57
2022/08/30 03:06:31;;;;;;;7.68;3.65;;;18.40;99.90;;;;;;4979192;28;20041;-57
2022/08/30 03:08:56;;;;;;;7.93;3.63;;;18.20;99.90;;;;;;4980562;28;20707;-57
2022/08/30 03:11:22;;;;;;;6.18;3.40;;;18.40;99.90;;;;;;4972959;28;20046;-57
2022/08/30 03:13:48;;;;;;;7.53;3.55;;;18.30;99.90;;;;;;4982643;28;20034;-57
2022/08/30 03:16:14;;;;;;;6.50;3.60;;;18.10;99.90;;;;;;4972099;28;20062;-57
2022/08/30 03:18:42;;;;;;;9.13;3.50;;;18.10;99.90;;;;;;4979837;28;20061;-57
2022/08/30 03:21:13;;;;;;;7.22;3.70;;;18.20;99.90;;;;;;4972960;28;20047;-54
2022/08/30 03:23:39;;;;;;;7.47;3.50;;;18.20;99.90;;;;;;4974148;28;20048;-57
2022/08/30 03:26:09;;;;;;;7.85;3.70;;;18.10;99.90;;;;;;4976456;28;20787;-57
2022/08/30 03:28:35;;;;;;;6.68;3.75;;;18.20;99.90;;;;;;4975038;28;20047;-56
2022/08/30 03:31:00;;;;;;;6.63;3.95;;;18.10;99.90;;;;;;4988664;28;20034;-56
2022/08/30 03:33:26;;;;;;;8.27;4.30;;;18.00;99.90;;;;;;4974228;28;20058;-55
2022/08/30 03:35:51;;;;;;;10.82;4.28;;;18.00;99.90;;;;;;4984925;28;20088;-57
2022/08/30 03:38:18;;;;;;;7.95;4.10;;;18.00;99.90;;;;;;4974285;28;20042;-56
2022/08/30 03:40:43;;;;;;;7.03;4.10;;;17.90;99.90;;;;;;4977262;28;20046;-56
2022/08/30 03:43:09;;;;;;;6.18;3.75;;;17.90;99.90;;;;;;4972137;28;20039;-56
2022/08/30 03:45:34;;;;;;;7.85;4.28;;;17.90;99.90;;;;;;4983749;28;20466;-56
2022/08/30 03:48:03;;;;;;;7.47;4.03;;;18.00;99.90;;;;;;4968556;28;20127;-57
2022/08/30 03:50:29;;;;;;;7.25;4.03;;;18.10;99.90;;;;;;4982017;28;20041;-55
2022/08/30 03:52:56;;;;;;;7.20;3.97;;;17.90;99.90;;;;;;4984056;28;20031;-57
2022/08/30 03:55:21;;;;;;;7.43;4.38;;;17.80;99.90;;;;;;4980178;28;20118;-58
2022/08/30 03:57:47;;;;;;;8.50;3.60;;;17.80;99.90;;;;;;4971045;28;20126;-58
2022/08/30 04:00:15;;;;;;;8.10;4.20;;;17.90;99.90;;;;;;4978466;28;20053;-57
2022/08/30 04:02:40;;;;;;;6.20;3.70;;;17.80;99.90;;;;;;4982212;28;20066;-56
2022/08/30 04:05:08;;;;;;;8.27;4.38;;;17.80;99.90;;;;;;4986941;28;20031;-56
2022/08/30 04:07:34;;;;;;;7.20;3.60;;;17.70;99.90;;;;;;4990110;28;20479;-57
2022/08/30 04:10:00;;;;;;;7.50;4.20;;;;;;;;;;4968165;28;20546;-57
2022/08/30 04:12:27;;;;;;;5.70;3.80;;;;;;;;;;4982120;28;20525;-57
2022/08/30 04:14:53;;;;;;;7.10;3.88;;;;;;;;;;4972819;28;20059;-56
2022/08/30 04:17:19;;;;;;;8.43;4.50;;;17.70;99.90;;;;;;4982701;28;20069;-56
2022/08/30 04:19:46;;;;;;;7.10;4.38;;;;;;;;;;4975182;28;20027;-57
2022/08/30 04:22:11;;;;;;;9.00;4.50;;;17.40;99.90;;;;;;4981530;28;20081;-57
2022/08/30 04:24:37;;;;;;;7.50;4.32;;;17.50;99.90;;;;;;4978532;28;20452;-57
2022/08/30 04:27:03;;;;;;;8.38;4.68;;;17.50;99.90;;;;;;4981285;28;20041;-57
2022/08/30 04:29:29;;;;;;;7.15;4.70;;;17.60;99.90;;;;;;4974115;28;20061;-56
2022/08/30 04:31:55;;;;;;;8.68;4.70;;;17.50;99.90;;;;;;4980832;28;20129;-57
2022/08/30 04:34:20;;;;;;;7.75;4.20;;;17.40;99.90;;;;;;4984961;28;20459;-55
2022/08/30 04:36:47;;;;;;;7.78;4.32;;;;;;;;;;4976180;28;20114;-56
2022/08/30 04:39:14;;;;;;;6.47;4.03;;;;;;;;;;4982206;28;20034;-56
2022/08/30 04:41:40;;;;;;;6.30;4.10;;;;;;;;;;4977418;28;20834;-57
2022/08/30 04:44:07;;;;;;;7.05;4.15;;;;;;;;;;4977054;28;20093;-57
2022/08/30 04:46:34;;;;;;;8.68;4.35;;;;;;;;;;4970479;28;20046;-57
2022/08/30 04:49:01;;;;;;;7.72;4.20;;;;;;;;;;4984536;28;20065;-57
2022/08/30 04:51:28;;;;;;;7.55;3.90;;;;;;;;;;4975058;28;20484;-55
2022/08/30 04:53:55;;;;;;;9.85;4.30;;;;;;;;;;4993174;28;20073;-58
2022/08/30 04:56:23;;;;;;;6.88;4.03;;;;;;;;;;4968047;28;20031;-55
2022/08/30 04:58:52;;;;;;;7.65;4.22;;;17.50;99.90;;;;;;4978464;28;20114;-57
2022/08/30 05:01:20;;;;;;;6.10;4.10;;;;;;;;;;4983535;28;20042;-58
2022/08/30 05:03:47;;;;;;;10.13;4.75;;;;;;;;;;4987039;28;20093;-57
2022/08/30 05:06:13;;;;;;;11.73;4.88;;;17.30;99.90;;;;;;4986764;28;20041;-57
2022/08/30 05:08:40;;;;;;;8.32;5.80;;;;;;;;;;4982855;28;20081;-57
2022/08/30 05:11:06;;;;;;;9.30;5.63;;;17.30;99.90;;;;;;4972053;28;20659;-57
2022/08/30 05:13:33;;;;;;;7.18;5.57;;;17.50;99.90;;;;;;4982578;28;20030;-57
2022/08/30 05:15:59;;;;;;;11.63;6.03;;;17.60;99.90;;;;;;4973229;28;20050;-57
2022/08/30 05:18:25;;;;;;;7.70;5.80;;;17.50;99.90;;;;;;4974411;28;20053;-57
2022/08/30 05:21:03;;;;;;;10.52;5.90;;;;;;;;;;4983109;28;20417;-57
2022/08/30 05:23:29;;;;;;;10.88;6.30;;;17.40;99.90;;;;;;4987076;28;20035;-57
2022/08/30 05:25:54;;;;;;;10.82;6.25;;;17.50;99.90;;;;;;4979538;28;20405;-56
2022/08/30 05:28:20;;;;;;;8.48;5.47;;;17.50;99.90;;;;;;4987301;28;20030;-57
2022/08/30 05:30:46;;;;;;;13.40;6.03;;;17.60;99.90;;;;;;5007867;28;20038;-57
2022/08/30 05:33:12;;;;;;;8.77;5.25;;;;;;;;;;4976791;28;20049;-57
2022/08/30 05:35:39;;;;;;;10.70;5.75;;;;;;;;;;4990487;28;20722;-58
2022/08/30 05:38:05;;;;;;;9.77;5.57;;;17.60;99.90;;;;;;4969038;28;20418;-58
2022/08/30 05:40:31;;;;;;;8.93;4.97;;;17.60;99.90;;;;;;4995268;28;20041;-58
2022/08/30 05:42:56;;;;;;;7.63;4.80;;;17.60;99.90;;;;;;4974172;28;20129;-57
2022/08/30 05:45:23;;;;;;;8.50;5.20;;;;;;;;;;4983663;28;20034;-58
2022/08/30 05:47:48;;;;;;;10.18;4.65;;;17.40;99.90;;;;;;4984641;28;20503;-58
2022/08/30 05:50:14;;;;;;;9.85;4.97;;;17.60;99.90;;;;;;4977578;28;20046;-58
2022/08/30 05:52:42;;;;;;;8.80;5.03;;;17.40;99.90;;;;;;4979457;28;20441;-59
2022/08/30 05:55:09;;;;;;;10.75;4.97;;;17.40;99.90;;;;;;4979852;28;20068;-58
2022/08/30 05:57:36;;;;;;;11.27;5.53;;;17.60;99.90;;;;;;4985403;28;20039;-58
2022/08/30 06:00:05;;;;;;;9.10;5.25;;;17.60;99.90;;;;;;4981988;28;20703;-59
2022/08/30 06:02:32;;;;;;;11.07;5.70;;;;;;;;;;4984070;28;20030;-54
2022/08/30 06:04:57;;;;;;;13.43;5.75;;;17.50;99.90;;;;;;4986690;28;20038;-59
2022/08/30 06:07:24;;;;;;;10.15;5.47;;;;;;;;;;4985467;28;20037;-59
2022/08/30 06:09:49;;;;;;;16.58;5.93;;;17.70;99.90;;;;;;4978423;28;20098;-59
2022/08/30 06:12:15;;;;;;;10.85;5.85;;;17.80;99.90;;;;;;4983345;28;20066;-58
2022/08/30 06:14:41;;;;;;;10.85;6.22;;;17.90;99.90;;;;;;4987403;28;20030;-57
2022/08/30 06:17:06;;;;;;;11.02;5.50;;;17.90;99.90;;;;;;4984340;28;20564;-59
2022/08/30 06:19:32;;;;;;;8.00;5.20;;;18.10;99.90;;;;;;4977810;28;20395;-58
2022/08/30 06:22:00;;;;;;;13.60;6.45;;;;;;;;;;4986661;28;20439;-59
2022/08/30 06:24:26;;;;;;;8.82;5.88;;;17.90;99.90;;;;;;4975868;28;20034;-58
2022/08/30 06:26:52;;;;;;;14.27;6.22;;;17.90;99.90;;;;;;4978693;28;20039;-58
2022/08/30 06:29:20;;;;;;;12.00;6.07;;;18.10;99.90;;;;;;4987801;28;20073;-59
2022/08/30 06:31:46;;;;;;;78.63;67.47;;;18.10;99.90;;;;;;4983182;28;20043;-59
2022/08/30 06:34:12;;;;;;;15.00;7.25;;;18.20;99.90;;;;;;4982190;28;20045;-60
2022/08/30 06:36:38;;;;;;;15.95;7.32;;;18.00;99.90;;;;;;4985462;28;20038;-59
2022/08/30 06:39:05;;;;;;;12.43;6.18;;;18.20;99.90;;;;;;4980306;28;20052;-58
2022/08/30 06:41:32;;;;;;;13.80;6.35;;;18.40;99.90;;;;;;4976533;28;20498;-57
2022/08/30 06:44:00;;;;;;;11.32;6.35;;;18.20;99.90;;;;;;4983851;28;20065;-58
2022/08/30 06:46:31;;;;;;;10.27;5.75;;;18.20;99.90;;;;;;4987718;28;20034;-60
2022/08/30 06:48:59;;;;;;;14.70;5.65;;;18.50;99.90;;;;;;4985991;28;20038;-60
2022/08/30 06:51:30;;;;;;;8.65;5.50;;;18.60;99.90;;;;;;4982152;28;20030;-59
2022/08/30 06:53:56;;;;;;;15.45;6.53;;;18.80;99.90;;;;;;4988317;28;20149;-59
2022/08/30 06:56:23;;;;;;;10.48;5.70;;;;;;;;;;4981988;28;20436;-60
2022/08/30 06:58:49;;;;;;;10.70;5.68;;;19.00;99.90;;;;;;4983932;28;20093;-59
2022/08/30 07:01:20;;;;;;;13.40;6.10;;;19.50;99.90;;;;;;4977420;28;20043;-59
2022/08/30 07:03:46;;;;;;;15.70;5.75;;;18.90;99.90;;;;;;4982970;28;20772;-59
2022/08/30 07:06:12;;;;;;;11.85;5.85;;;18.90;99.90;;;;;;4968435;28;20038;-59
2022/08/30 07:08:39;;;;;;;13.80;5.97;;;18.70;99.90;;;;;;4974614;28;20038;-59
2022/08/30 07:11:06;;;;;;;13.63;6.35;;;18.60;99.90;;;;;;4972778;28;20518;-59
2022/08/30 07:13:33;;;;;;;9.98;6.25;;;18.60;99.90;;;;;;4982207;28;20438;-59
2022/08/30 07:15:58;;;;;;;10.18;5.90;;;18.80;99.90;;;;;;4969945;28;20031;-57
2022/08/30 07:21:11;;;;;;;9.60;6.00;;;19.10;99.90;;;;;;4984757;28;20082;-58
2022/08/30 07:23:37;;;;;;;11.15;6.00;;;18.80;99.90;;;;;;4980273;28;20540;-59
2022/08/30 07:26:05;;;;;;;10.77;5.75;;;18.80;99.90;;;;;;4982187;28;20383;-59
2022/08/30 07:28:30;;;;;;;8.32;5.43;;;19.00;99.90;;;;;;4981113;28;20035;-58
2022/08/30 07:30:56;;;;;;;10.35;5.97;;;19.00;99.90;;;;;;4979877;28;20069;-59
2022/08/30 07:33:21;;;;;;;13.25;6.18;;;19.00;99.90;;;;;;4985855;28;20085;-59
2022/08/30 07:35:47;;;;;;;12.35;6.30;;;18.90;99.90;;;;;;4975530;28;20042;-59
2022/08/30 07:38:13;;;;;;;9.75;5.80;;;18.90;99.90;;;;;;4973762;28;20045;-60
2022/08/30 07:40:40;;;;;;;11.65;6.15;;;18.90;99.90;;;;;;4980821;28;20042;-60
2022/08/30 07:43:05;;;;;;;11.48;6.38;;;19.20;99.90;;;;;;4981936;28;20034;-59
2022/08/30 07:45:31;;;;;;;10.30;5.72;;;19.30;99.90;;;;;;4976432;28;20436;-60
2022/08/30 07:47:57;;;;;;;11.38;5.57;;;19.40;99.90;;;;;;4976679;28;20035;-59
2022/08/30 07:50:22;;;;;;;13.13;6.30;;;19.50;99.90;;;;;;4982317;28;20552;-59
2022/08/30 07:52:48;;;;;;;7.93;5.80;;;19.60;99.90;;;;;;4974324;28;20035;-58
2022/08/30 07:55:14;;;;;;;12.55;6.30;;;19.20;99.90;;;;;;4968312;28;20039;-59
2022/08/30 07:57:39;;;;;;;12.40;6.28;;;19.30;99.90;;;;;;4972740;28;20066;-60
2022/08/30 08:00:06;;;;;;;11.00;6.20;;;19.30;99.90;;;;;;4973208;28;20043;-59
2022/08/30 08:02:32;;;;;;;10.05;5.40;;;19.40;99.90;;;;;;4969744;28;20150;-59
2022/08/30 08:04:58;;;;;;;12.48;6.20;;;19.50;99.90;;;;;;4976722;28;20054;-59
2022/08/30 08:07:23;;;;;;;13.57;6.03;;;19.80;99.90;;;;;;4972205;28;20163;-59
2022/08/30 08:09:49;;;;;;;12.38;5.97;;;20.00;99.90;;;;;;4973608;28;20039;-59
2022/08/30 08:12:14;;;;;;;10.63;5.95;;;19.90;99.90;;;;;;4965409;28;20994;-58
2022/08/30 08:14:40;;;;;;;9.32;5.10;;;19.90;99.90;;;;;;4973739;28;20058;-58
2022/08/30 08:17:06;;;;;;;12.68;5.75;;;19.90;99.90;;;;;;4977274;28;20042;-60
2022/08/30 08:19:32;;;;;;;10.35;5.47;;;19.70;99.90;;;;;;4971805;28;20062;-59
2022/08/30 08:21:59;;;;;;;7.80;4.43;;;19.90;99.90;;;;;;4984617;28;20065;-59
2022/08/30 08:24:28;;;;;;;10.48;5.18;;;20.20;99.90;;;;;;4975240;28;21998;-59
2022/08/30 08:26:54;;;;;;;7.65;5.38;;;20.40;99.90;;;;;;4988380;28;20038;-59
2022/08/30 08:29:20;;;;;;;10.82;5.60;;;20.20;99.90;;;;;;4979799;28;20035;-58
2022/08/30 08:31:45;;;;;;;11.18;4.78;;;20.20;99.90;;;;;;4992693;28;20048;-58
2022/08/30 08:34:11;;;;;;;9.68;5.28;;;20.20;99.90;;;;;;4983352;28;20505;-59
2022/08/30 08:36:37;;;;;;;6.55;4.57;;;20.20;99.90;;;;;;4978802;28;20129;-60
2022/08/30 08:39:04;;;;;;;10.25;4.45;;;20.30;99.90;;;;;;4972403;28;20031;-59
2022/08/30 08:41:54;;;;;;;7.80;4.22;;;20.20;99.90;;;;;;4986160;28;20038;-57
2022/08/30 08:44:29;;;;;;;9.27;4.60;;;20.20;99.90;;;;;;4972375;28;20435;-57
2022/08/30 08:47:16;;;;;;;10.88;4.80;;;20.30;99.90;;;;;;4977616;28;20047;-58
2022/08/30 08:49:45;;;;;;;13.25;4.95;;;20.30;99.90;;;;;;4982282;28;20042;-59
2022/08/30 08:55:14;;;;;;;7.03;4.43;;;20.60;99.90;;;;;;4978233;28;20100;-59
2022/08/30 08:57:40;;;;;;;6.95;3.80;;;20.70;99.90;;;;;;4973174;28;20070;-59
2022/08/30 09:00:10;;;;;;;11.25;4.30;;;20.80;99.90;;;;;;4968254;28;20042;-59
2022/08/30 09:02:43;;;;;;;7.65;3.78;;;20.90;99.90;;;;;;4970413;28;20062;-59
2022/08/30 09:05:13;;;;;;;9.85;4.00;;;21.00;99.90;;;;;;4978255;28;20044;-59
2022/08/30 09:07:43;;;;;;;9.27;3.65;;;21.20;99.90;;;;;;4987137;28;20037;-60
2022/08/30 09:10:09;;;;;;;9.38;4.30;;;21.00;99.90;;;;;;4965276;28;20043;-60
2022/08/30 09:12:35;;;;;;;6.95;4.13;;;20.90;99.90;;;;;;4983759;28;20038;-59
2022/08/30 09:15:07;;;;;;;6.50;3.97;;;21.00;99.90;;;;;;4971692;28;20763;-59
2022/08/30 09:17:50;;;;;;;6.35;3.38;;;21.10;99.90;;;;;;4984465;28;20539;-60
2022/08/30 09:20:32;;;;;;;8.73;3.75;;;21.40;99.90;;;;;;4986478;28;20034;-58
2022/08/30 09:23:20;;;;;;;7.70;3.90;;;21.50;99.90;;;;;;4973441;28;20039;-60
2022/08/30 09:26:07;;;;;;;11.48;3.28;;;21.80;99.90;;;;;;4978301;28;20076;-59
2022/08/30 09:28:50;;;;;;;6.88;4.22;;;22.00;99.90;;;;;;4982245;28;20035;-60
2022/08/30 09:31:24;;;;;;;12.23;3.53;;;22.00;99.90;;;;;;4982104;28;20453;-60
2022/08/30 09:33:54;;;;;;;19.92;8.93;;;21.80;99.90;;;;;;4979918;28;20375;-58
2022/08/30 09:36:31;;;;;;;6.95;3.47;;;21.80;99.90;;;;;;4983997;28;20049;-61
2022/08/30 09:39:13;;;;;;;6.60;2.95;;;22.10;99.90;;;;;;4973538;28;20429;-60
2022/08/30 09:41:41;;;;;;;10.32;3.40;;;22.10;99.90;;;;;;4980086;28;20432;-60
2022/08/30 09:44:13;;;;;;;7.65;3.33;;;22.00;99.90;;;;;;4983548;28;20049;-59
2022/08/30 09:46:45;;;;;;;5.78;3.03;;;22.00;99.90;;;;;;4986877;28;20573;-60
2022/08/30 09:49:31;;;;;;;7.88;2.83;;;22.40;99.90;;;;;;4984481;28;20173;-59
2022/08/30 09:52:25;;;;;;;5.82;2.67;;;22.30;99.90;;;;;;4972323;28;20045;-59
2022/08/30 09:55:36;;;;;;;8.40;3.55;;;22.20;99.90;;;;;;4974605;28;20077;-60
2022/08/30 09:58:10;;;;;;;6.20;2.60;;;22.10;99.90;;;;;;4983588;28;20038;-59
2022/08/30 10:00:46;;;;;;;6.70;2.70;;;22.20;99.90;;;;;;4977782;28;20035;-59
2022/08/30 10:03:24;;;;;;;5.38;2.38;;;22.20;99.90;;;;;;4977014;28;20042;-60
2022/08/30 10:06:09;;;;;;;5.55;3.10;;;22.30;99.90;;;;;;4968607;28;20031;-60
2022/08/30 10:09:02;;;;;;;9.18;3.17;;;22.40;99.90;;;;;;4965767;28;20386;-59
2022/08/30 10:11:46;;;;;;;8.00;2.90;;;22.40;99.90;;;;;;4970214;28;20069;-59
2022/08/30 10:14:30;;;;;;;4.78;2.80;;;22.50;99.90;;;;;;4972395;28;20054;-60
2022/08/30 10:17:08;;;;;;;8.45;3.03;;;22.60;99.90;;;;;;4974468;28;20156;-60
2022/08/30 10:19:53;;;;;;;6.10;2.75;;;22.70;99.90;;;;;;4981401;28;22036;-60
2022/08/30 10:22:30;;;;;;;8.05;2.50;;;22.60;99.90;;;;;;4980705;28;20038;-61
2022/08/30 10:25:25;;;;;;;7.40;2.90;;;22.80;99.90;;;;;;4980813;28;20037;-60
2022/08/30 10:27:50;;;;;;;28.63;20.00;;;22.90;99.90;;;;;;4980188;28;20405;-60
2022/08/30 10:30:17;;;;;;;5.30;2.35;;;23.00;99.90;;;;;;4976274;28;20036;-60
2022/08/30 10:33:15;;;;;;;8.50;2.70;;;23.00;99.90;;;;;;4975266;28;21993;-59
2022/08/30 10:35:55;;;;;;;8.55;2.83;;;22.80;99.90;;;;;;4967217;28;20035;-60
2022/08/30 10:38:28;;;;;;;7.88;2.80;;;22.80;99.90;;;;;;4972008;28;20027;-59
2022/08/30 10:41:14;;;;;;;6.60;2.95;;;22.90;99.90;;;;;;4976758;28;20109;-60
2022/08/30 10:43:58;;;;;;;6.22;3.20;;;23.00;99.90;;;;;;4973547;28;20514;-60
2022/08/30 10:46:33;;;;;;;4.93;2.15;;;23.10;99.90;;;;;;4973597;28;20553;-58
2022/08/30 10:49:03;;;;;;;7.03;2.25;;;23.20;99.90;;;;;;4979152;28;20037;-60
2022/08/30 10:51:51;;;;;;;5.22;2.30;;;23.10;99.90;;;;;;4978603;28;20042;-59
2022/08/30 10:54:30;;;;;;;7.57;2.50;;;23.20;99.90;;;;;;4999450;28;20042;-60
2022/08/30 10:56:56;;;;;;;7.40;2.97;;;23.30;99.90;;;;;;4975923;28;20041;-60
2022/08/30 10:59:22;;;;;;;8.60;2.90;;;23.70;99.90;;;;;;4983660;28;20043;-58
2022/08/30 11:02:07;;;;;;;7.40;2.72;;;23.40;99.90;;;;;;4979220;28;20084;-61
2022/08/30 11:04:57;;;;;;;5.97;2.38;;;23.10;99.90;;;;;;4981178;28;20106;-60
2022/08/30 11:07:42;;;;;;;5.07;2.50;;;23.20;99.90;;;;;;4982134;28;20085;-60
2022/08/30 11:10:13;;;;;;;7.75;2.50;;;23.10;99.90;;;;;;4984023;28;20046;-61
2022/08/30 11:13:15;;;;;;;4.53;2.33;;;23.10;99.90;;;;;;4979236;28;20498;-60
2022/08/30 11:16:01;;;;;;;6.10;1.90;;;23.30;99.90;;;;;;4970484;28;20038;-60
2022/08/30 11:18:31;;;;;;;8.02;2.58;;;23.40;99.90;;;;;;4978910;28;20050;-61
2022/08/30 11:21:35;;;;;;;3.95;2.20;;;23.50;99.90;;;;;;4979545;28;20062;-61
2022/08/30 11:24:13;;;;;;;8.47;2.63;;;24.20;99.90;;;;;;4975873;28;20031;-62
2022/08/30 11:26:45;;;;;;;5.57;2.50;;;23.70;99.90;;;;;;4977811;28;20278;-61
2022/08/30 11:29:41;;;;;;;5.60;2.30;;;23.50;99.90;;;;;;4966404;28;20042;-61
2022/08/30 11:32:13;;;;;;;6.30;2.40;;;23.70;99.90;;;;;;4977747;28;20047;-60
2022/08/30 11:34:47;;;;;;;6.20;2.50;;;23.70;99.90;;;;;;4973943;28;20498;-60
2022/08/30 11:37:41;;;;;;;70.45;5.93;;;23.60;99.90;;;;;;4967351;28;20562;-61
2022/08/30 11:40:19;;;;;;;5.30;2.30;;;23.70;99.90;;;;;;4977749;28;20490;-59
2022/08/30 11:42:47;;;;;;;5.80;2.33;;;23.60;99.90;;;;;;4968703;28;20043;-61
2022/08/30 11:45:21;;;;;;;7.13;2.42;;;23.50;99.90;;;;;;4983442;28;20409;-60
2022/08/30 11:48:02;;;;;;;5.93;2.40;;;23.50;99.90;;;;;;4969663;28;20532;-59
2022/08/30 11:50:45;;;;;;;4.28;2.20;;;23.60;99.90;;;;;;4971196;28;20034;-60
2022/08/30 11:53:24;;;;;;;10.67;2.30;;;23.60;99.90;;;;;;4982573;28;20095;-61
2022/08/30 11:56:16;;;;;;;8.57;2.20;;;23.70;99.90;;;;;;4971788;28;20047;-61
2022/08/30 11:58:56;;;;;;;7.72;2.15;;;23.80;99.90;;;;;;4984165;28;20113;-61
2022/08/30 12:01:24;;;;;;;4.88;1.95;;;23.90;99.90;;;;;;4976565;28;20058;-61
2022/08/30 12:04:13;;;;;;;4.82;1.90;;;23.80;99.90;;;;;;4971577;28;20046;-61
2022/08/30 12:06:39;;;;;;;6.03;2.00;;;23.90;99.90;;;;;;4969593;28;20039;-60
2022/08/30 12:09:06;;;;;;;3.65;1.95;;;23.90;99.90;;;;;;4980778;28;20800;-61
2022/08/30 12:11:34;;;;;;;7.35;1.85;;;24.10;99.90;;;;;;4986212;28;20418;-61
2022/08/30 12:14:43;;;;;;;4.72;2.05;;;24.10;99.90;;;;;;4985662;28;20426;-60
2022/08/30 12:20:02;;;;;;;6.05;2.17;;;24.10;99.90;;;;;;4958318;28;20133;-60
2022/08/30 12:22:29;;;;;;;7.50;2.08;;;24.20;99.90;;;;;;4960480;28;20197;-61
2022/08/30 12:24:55;;;;;;;5.78;1.95;;;24.20;99.90;;;;;;4968124;28;20092;-60
2022/08/30 12:27:27;;;;;;;5.85;2.22;;;24.20;99.90;;;;;;4965935;28;20162;-60
2022/08/30 12:30:04;;;;;;;3.70;1.73;;;24.40;99.90;;;;;;4962048;28;20541;-60
2022/08/30 12:32:31;;;;;;;4.85;1.73;;;24.50;99.90;;;;;;4959672;28;20498;-61
2022/08/30 12:34:58;;;;;;;6.20;2.10;;;24.40;99.90;;;;;;4970621;28;20042;-61
2022/08/30 12:37:37;;;;;;;5.13;2.20;;;24.50;99.90;;;;;;4962662;28;20352;-61
2022/08/30 12:40:18;;;;;;;7.95;1.80;;;24.50;99.90;;;;;;4963836;28;20439;-61
2022/08/30 12:42:54;;;;;;;6.78;2.42;;;24.40;99.90;;;;;;4963663;28;20127;-60
2022/08/30 12:45:25;;;;;;;8.07;2.10;;;24.40;99.90;;;;;;4960947;28;20113;-59
2022/08/30 12:47:59;;;;;;;5.38;2.05;;;24.30;99.90;;;;;;4959199;28;20043;-61
2022/08/30 12:50:32;;;;;;;3.22;1.83;;;24.50;99.90;;;;;;4962097;28;20446;-61
2022/08/30 12:53:08;;;;;;;8.00;2.38;;;24.40;99.90;;;;;;4966632;28;20038;-60
2022/08/30 12:55:48;;;;;;;7.22;2.30;;;24.30;99.90;;;;;;4961465;28;20043;-59
2022/08/30 12:58:14;;;;;;;5.68;2.20;;;24.30;99.90;;;;;;4980087;28;20065;-60
2022/08/30 13:00:44;;;;;;;6.45;2.30;;;24.40;99.90;;;;;;4969790;28;20042;-60
2022/08/30 13:03:32;;;;;;;3.90;1.90;;;24.50;99.90;;;;;;4975651;28;20046;-60
2022/08/30 13:05:58;;;;;;;5.00;2.58;;;24.50;99.90;;;;;;4977913;28;20518;-61
2022/08/30 13:08:29;;;;;;;6.50;2.10;;;24.50;99.90;;;;;;4987288;28;20043;-59
2022/08/30 13:11:08;;;;;;;6.50;2.47;;;24.60;99.90;;;;;;4984886;28;20081;-61
2022/08/30 13:13:38;;;;;;;4.40;2.13;;;24.50;99.90;;;;;;4979520;28;20030;-61
2022/08/30 13:16:10;;;;;;;6.60;2.80;;;24.50;99.90;;;;;;4984746;28;20042;-61
2022/08/30 13:18:36;;;;;;;10.02;2.85;;;;;;;;;;4972781;28;20037;-61